sensor_id;sensor_type;location;lat;lon;timestamp;P1;durP1;ratioP1;P2;durP2;ratioP2
11791;SDS011;5953;52.372;9.918;2023-07-29T00:00:08;5.17;;;2.77;;
11791;SDS011;5953;52.372;9.918;2023-07-29T00:02:39;2.07;;;1.97;;
11791;SDS011;5953;52.372;9.918;2023-07-29T00:05:07;2.30;;;2.20;;
11791;SDS011;5953;52.372;9.918;2023-07-29T00:07:35;2.30;;;2.03;;
11791;SDS011;5953;52.372;9.918;2023-07-29T00:10:03;2.53;;;2.33;;
11791;SDS011;5953;52.372;9.918;2023-07-29T00:12:33;2.03;;;1.83;;
11791;SDS011;5953;52.372;9.918;2023-07-29T00:15:01;2.40;;;1.80;;
11791;SDS011;5953;52.372;9.918;2023-07-29T00:17:29;2.07;;;1.77;;
11791;SDS011;5953;52.372;9.918;2023-07-29T00:19:56;2.10;;;1.97;;
11791;SDS011;5953;52.372;9.918;2023-07-29T00:22:24;2.07;;;1.97;;
11791;SDS011;5953;52.372;9.918;2023-07-29T00:24:52;2.57;;;2.07;;
11791;SDS011;5953;52.372;9.918;2023-07-29T00:27:21;2.67;;;1.80;;
11791;SDS011;5953;52.372;9.918;2023-07-29T00:29:50;2.20;;;2.00;;
11791;SDS011;5953;52.372;9.918;2023-07-29T00:32:18;3.10;;;2.07;;
11791;SDS011;5953;52.372;9.918;2023-07-29T00:34:46;1.93;;;1.83;;
11791;SDS011;5953;52.372;9.918;2023-07-29T00:37:13;2.43;;;2.23;;
11791;SDS011;5953;52.372;9.918;2023-07-29T00:39:41;1.90;;;1.80;;
11791;SDS011;5953;52.372;9.918;2023-07-29T00:42:09;2.07;;;1.87;;
11791;SDS011;5953;52.372;9.918;2023-07-29T00:44:37;2.13;;;1.70;;
11791;SDS011;5953;52.372;9.918;2023-07-29T00:47:06;3.87;;;2.40;;
11791;SDS011;5953;52.372;9.918;2023-07-29T00:49:35;3.00;;;1.70;;
11791;SDS011;5953;52.372;9.918;2023-07-29T00:52:03;2.50;;;1.93;;
11791;SDS011;5953;52.372;9.918;2023-07-29T00:54:31;3.23;;;1.77;;
11791;SDS011;5953;52.372;9.918;2023-07-29T00:56:59;1.53;;;1.43;;
11791;SDS011;5953;52.372;9.918;2023-07-29T00:59:27;2.50;;;2.30;;
11791;SDS011;5953;52.372;9.918;2023-07-29T01:01:56;2.10;;;1.83;;
11791;SDS011;5953;52.372;9.918;2023-07-29T01:04:25;1.80;;;1.70;;
11791;SDS011;5953;52.372;9.918;2023-07-29T01:06:54;2.73;;;2.00;;
11791;SDS011;5953;52.372;9.918;2023-07-29T01:09:31;2.33;;;1.70;;
11791;SDS011;5953;52.372;9.918;2023-07-29T01:12:06;2.60;;;2.40;;
11791;SDS011;5953;52.372;9.918;2023-07-29T01:14:45;5.17;;;2.30;;
11791;SDS011;5953;52.372;9.918;2023-07-29T01:17:21;2.27;;;2.10;;
11791;SDS011;5953;52.372;9.918;2023-07-29T01:19:58;2.50;;;1.93;;
11791;SDS011;5953;52.372;9.918;2023-07-29T01:22:29;1.90;;;1.80;;
11791;SDS011;5953;52.372;9.918;2023-07-29T01:24:59;4.80;;;2.10;;
11791;SDS011;5953;52.372;9.918;2023-07-29T01:27:27;1.93;;;1.83;;
11791;SDS011;5953;52.372;9.918;2023-07-29T01:29:55;1.93;;;1.83;;
11791;SDS011;5953;52.372;9.918;2023-07-29T01:32:26;1.90;;;1.80;;
11791;SDS011;5953;52.372;9.918;2023-07-29T01:35:03;4.07;;;1.97;;
11791;SDS011;5953;52.372;9.918;2023-07-29T01:37:37;2.30;;;2.10;;
11791;SDS011;5953;52.372;9.918;2023-07-29T01:40:08;2.70;;;2.30;;
11791;SDS011;5953;52.372;9.918;2023-07-29T01:42:37;2.40;;;2.07;;
11791;SDS011;5953;52.372;9.918;2023-07-29T01:45:05;3.23;;;2.20;;
11791;SDS011;5953;52.372;9.918;2023-07-29T01:47:33;2.63;;;2.30;;
11791;SDS011;5953;52.372;9.918;2023-07-29T01:50:01;2.67;;;2.30;;
11791;SDS011;5953;52.372;9.918;2023-07-29T01:52:29;1.90;;;1.70;;
11791;SDS011;5953;52.372;9.918;2023-07-29T01:54:57;1.70;;;1.60;;
11791;SDS011;5953;52.372;9.918;2023-07-29T01:57:26;1.90;;;1.80;;
11791;SDS011;5953;52.372;9.918;2023-07-29T01:59:54;2.67;;;2.10;;
11791;SDS011;5953;52.372;9.918;2023-07-29T02:02:22;2.10;;;2.00;;
11791;SDS011;5953;52.372;9.918;2023-07-29T02:04:49;2.03;;;1.93;;
11791;SDS011;5953;52.372;9.918;2023-07-29T02:07:18;2.67;;;2.50;;
11791;SDS011;5953;52.372;9.918;2023-07-29T02:09:46;2.20;;;1.83;;
11791;SDS011;5953;52.372;9.918;2023-07-29T02:12:14;2.63;;;2.17;;
11791;SDS011;5953;52.372;9.918;2023-07-29T02:14:43;1.97;;;1.80;;
11791;SDS011;5953;52.372;9.918;2023-07-29T02:17:11;2.60;;;2.40;;
11791;SDS011;5953;52.372;9.918;2023-07-29T02:19:38;2.27;;;1.93;;
11791;SDS011;5953;52.372;9.918;2023-07-29T02:22:06;2.70;;;2.50;;
11791;SDS011;5953;52.372;9.918;2023-07-29T02:24:34;2.67;;;1.80;;
11791;SDS011;5953;52.372;9.918;2023-07-29T02:27:02;2.10;;;1.93;;
11791;SDS011;5953;52.372;9.918;2023-07-29T02:29:30;2.43;;;1.97;;
11791;SDS011;5953;52.372;9.918;2023-07-29T02:32:00;2.10;;;1.90;;
11791;SDS011;5953;52.372;9.918;2023-07-29T02:34:28;2.40;;;1.77;;
11791;SDS011;5953;52.372;9.918;2023-07-29T02:36:56;2.00;;;1.90;;
11791;SDS011;5953;52.372;9.918;2023-07-29T02:39:24;2.00;;;1.90;;
11791;SDS011;5953;52.372;9.918;2023-07-29T02:41:52;1.87;;;1.77;;
11791;SDS011;5953;52.372;9.918;2023-07-29T02:44:21;2.17;;;2.07;;
11791;SDS011;5953;52.372;9.918;2023-07-29T02:46:49;1.90;;;1.80;;
11791;SDS011;5953;52.372;9.918;2023-07-29T02:49:19;3.13;;;2.20;;
11791;SDS011;5953;52.372;9.918;2023-07-29T02:51:47;2.17;;;2.07;;
11791;SDS011;5953;52.372;9.918;2023-07-29T02:54:15;2.23;;;2.13;;
11791;SDS011;5953;52.372;9.918;2023-07-29T02:56:43;2.30;;;2.10;;
11791;SDS011;5953;52.372;9.918;2023-07-29T02:59:10;2.47;;;2.20;;
11791;SDS011;5953;52.372;9.918;2023-07-29T03:01:38;2.57;;;1.93;;
11791;SDS011;5953;52.372;9.918;2023-07-29T03:04:06;3.00;;;2.33;;
11791;SDS011;5953;52.372;9.918;2023-07-29T03:06:35;2.17;;;2.00;;
11791;SDS011;5953;52.372;9.918;2023-07-29T03:09:03;2.40;;;2.17;;
11791;SDS011;5953;52.372;9.918;2023-07-29T03:11:32;1.70;;;1.60;;
11791;SDS011;5953;52.372;9.918;2023-07-29T03:13:59;2.07;;;1.87;;
11791;SDS011;5953;52.372;9.918;2023-07-29T03:16:28;3.37;;;2.10;;
11791;SDS011;5953;52.372;9.918;2023-07-29T03:18:56;2.90;;;2.13;;
11791;SDS011;5953;52.372;9.918;2023-07-29T03:21:24;2.40;;;2.20;;
11791;SDS011;5953;52.372;9.918;2023-07-29T03:23:53;3.17;;;2.00;;
11791;SDS011;5953;52.372;9.918;2023-07-29T03:26:21;2.57;;;2.37;;
11791;SDS011;5953;52.372;9.918;2023-07-29T03:28:48;2.43;;;1.47;;
11791;SDS011;5953;52.372;9.918;2023-07-29T03:31:16;2.93;;;2.73;;
11791;SDS011;5953;52.372;9.918;2023-07-29T03:33:44;1.73;;;1.63;;
11791;SDS011;5953;52.372;9.918;2023-07-29T03:36:12;2.40;;;2.30;;
11791;SDS011;5953;52.372;9.918;2023-07-29T03:38:40;1.87;;;1.73;;
11791;SDS011;5953;52.372;9.918;2023-07-29T03:41:09;2.57;;;2.37;;
11791;SDS011;5953;52.372;9.918;2023-07-29T03:43:37;2.40;;;1.60;;
11791;SDS011;5953;52.372;9.918;2023-07-29T03:46:05;2.20;;;1.97;;
11791;SDS011;5953;52.372;9.918;2023-07-29T03:48:37;2.10;;;1.90;;
11791;SDS011;5953;52.372;9.918;2023-07-29T03:51:05;2.13;;;2.03;;
11791;SDS011;5953;52.372;9.918;2023-07-29T03:53:32;2.03;;;1.50;;
11791;SDS011;5953;52.372;9.918;2023-07-29T03:56:00;3.03;;;1.83;;
11791;SDS011;5953;52.372;9.918;2023-07-29T03:58:29;2.23;;;1.90;;
11791;SDS011;5953;52.372;9.918;2023-07-29T04:00:57;1.60;;;1.50;;
11791;SDS011;5953;52.372;9.918;2023-07-29T04:03:25;2.23;;;2.03;;
11791;SDS011;5953;52.372;9.918;2023-07-29T04:05:53;2.07;;;1.87;;
11791;SDS011;5953;52.372;9.918;2023-07-29T04:08:21;2.20;;;2.10;;
11791;SDS011;5953;52.372;9.918;2023-07-29T04:10:48;2.27;;;1.90;;
11791;SDS011;5953;52.372;9.918;2023-07-29T04:13:16;2.13;;;2.03;;
11791;SDS011;5953;52.372;9.918;2023-07-29T04:15:46;1.90;;;1.70;;
11791;SDS011;5953;52.372;9.918;2023-07-29T04:18:13;1.90;;;1.80;;
11791;SDS011;5953;52.372;9.918;2023-07-29T04:20:41;3.30;;;1.90;;
11791;SDS011;5953;52.372;9.918;2023-07-29T04:23:09;2.40;;;2.20;;
11791;SDS011;5953;52.372;9.918;2023-07-29T04:25:37;2.37;;;1.77;;
11791;SDS011;5953;52.372;9.918;2023-07-29T04:28:04;1.80;;;1.70;;
11791;SDS011;5953;52.372;9.918;2023-07-29T04:30:32;2.57;;;1.90;;
11791;SDS011;5953;52.372;9.918;2023-07-29T04:33:01;2.77;;;2.13;;
11791;SDS011;5953;52.372;9.918;2023-07-29T04:35:29;3.03;;;1.73;;
11791;SDS011;5953;52.372;9.918;2023-07-29T04:37:57;2.20;;;2.00;;
11791;SDS011;5953;52.372;9.918;2023-07-29T04:40:25;1.97;;;1.87;;
11791;SDS011;5953;52.372;9.918;2023-07-29T04:42:52;1.90;;;1.80;;
11791;SDS011;5953;52.372;9.918;2023-07-29T04:45:20;2.20;;;2.10;;
11791;SDS011;5953;52.372;9.918;2023-07-29T04:47:48;1.70;;;1.60;;
11791;SDS011;5953;52.372;9.918;2023-07-29T04:50:17;2.20;;;2.00;;
11791;SDS011;5953;52.372;9.918;2023-07-29T04:52:45;1.97;;;1.47;;
11791;SDS011;5953;52.372;9.918;2023-07-29T04:55:12;2.40;;;2.10;;
11791;SDS011;5953;52.372;9.918;2023-07-29T04:57:40;2.30;;;1.80;;
11791;SDS011;5953;52.372;9.918;2023-07-29T05:00:08;2.53;;;2.23;;
11791;SDS011;5953;52.372;9.918;2023-07-29T05:02:37;2.10;;;1.70;;
11791;SDS011;5953;52.372;9.918;2023-07-29T05:05:05;2.10;;;2.00;;
11791;SDS011;5953;52.372;9.918;2023-07-29T05:07:35;1.80;;;1.70;;
11791;SDS011;5953;52.372;9.918;2023-07-29T05:10:03;2.10;;;1.87;;
11791;SDS011;5953;52.372;9.918;2023-07-29T05:12:32;4.13;;;1.70;;
11791;SDS011;5953;52.372;9.918;2023-07-29T05:15:00;2.70;;;1.87;;
11791;SDS011;5953;52.372;9.918;2023-07-29T05:17:27;2.20;;;2.00;;
11791;SDS011;5953;52.372;9.918;2023-07-29T05:19:55;2.50;;;2.10;;
11791;SDS011;5953;52.372;9.918;2023-07-29T05:22:23;2.47;;;2.33;;
11791;SDS011;5953;52.372;9.918;2023-07-29T05:24:52;2.03;;;1.93;;
11791;SDS011;5953;52.372;9.918;2023-07-29T05:27:20;2.17;;;2.07;;
11791;SDS011;5953;52.372;9.918;2023-07-29T05:29:48;2.97;;;1.97;;
11791;SDS011;5953;52.372;9.918;2023-07-29T05:32:15;2.80;;;2.40;;
11791;SDS011;5953;52.372;9.918;2023-07-29T05:34:43;3.10;;;1.77;;
11791;SDS011;5953;52.372;9.918;2023-07-29T05:37:11;3.40;;;2.53;;
11791;SDS011;5953;52.372;9.918;2023-07-29T05:39:39;5.10;;;2.40;;
11791;SDS011;5953;52.372;9.918;2023-07-29T05:42:08;3.40;;;2.70;;
11791;SDS011;5953;52.372;9.918;2023-07-29T05:44:36;2.90;;;2.67;;
11791;SDS011;5953;52.372;9.918;2023-07-29T05:47:03;3.00;;;2.67;;
11791;SDS011;5953;52.372;9.918;2023-07-29T05:49:32;3.53;;;2.47;;
11791;SDS011;5953;52.372;9.918;2023-07-29T05:52:00;7.33;;;2.80;;
11791;SDS011;5953;52.372;9.918;2023-07-29T05:54:28;2.60;;;2.40;;
11791;SDS011;5953;52.372;9.918;2023-07-29T05:56:59;3.00;;;2.50;;
11791;SDS011;5953;52.372;9.918;2023-07-29T05:59:28;2.87;;;2.30;;
11791;SDS011;5953;52.372;9.918;2023-07-29T06:01:56;3.10;;;2.80;;
11791;SDS011;5953;52.372;9.918;2023-07-29T06:04:24;3.33;;;3.00;;
11791;SDS011;5953;52.372;9.918;2023-07-29T06:06:51;2.70;;;2.17;;
11791;SDS011;5953;52.372;9.918;2023-07-29T06:09:19;4.37;;;2.50;;
11791;SDS011;5953;52.372;9.918;2023-07-29T06:11:47;3.07;;;2.60;;
11791;SDS011;5953;52.372;9.918;2023-07-29T06:14:16;3.20;;;2.77;;
11791;SDS011;5953;52.372;9.918;2023-07-29T06:16:45;8.83;;;2.80;;
11791;SDS011;5953;52.372;9.918;2023-07-29T06:19:13;3.53;;;2.53;;
11791;SDS011;5953;52.372;9.918;2023-07-29T06:21:41;2.97;;;2.50;;
11791;SDS011;5953;52.372;9.918;2023-07-29T06:24:10;5.40;;;2.53;;
11791;SDS011;5953;52.372;9.918;2023-07-29T06:26:38;2.37;;;2.13;;
11791;SDS011;5953;52.372;9.918;2023-07-29T06:29:09;2.60;;;2.40;;
11791;SDS011;5953;52.372;9.918;2023-07-29T06:31:38;2.53;;;2.10;;
11791;SDS011;5953;52.372;9.918;2023-07-29T06:34:08;3.63;;;2.00;;
11791;SDS011;5953;52.372;9.918;2023-07-29T06:36:36;3.23;;;2.30;;
11791;SDS011;5953;52.372;9.918;2023-07-29T06:39:05;2.27;;;2.07;;
11791;SDS011;5953;52.372;9.918;2023-07-29T06:41:34;3.27;;;2.37;;
11791;SDS011;5953;52.372;9.918;2023-07-29T06:44:06;3.50;;;2.80;;
11791;SDS011;5953;52.372;9.918;2023-07-29T06:46:35;4.93;;;2.97;;
11791;SDS011;5953;52.372;9.918;2023-07-29T06:49:05;3.83;;;2.47;;
11791;SDS011;5953;52.372;9.918;2023-07-29T06:51:37;3.03;;;2.73;;
11791;SDS011;5953;52.372;9.918;2023-07-29T06:54:06;2.80;;;2.43;;
11791;SDS011;5953;52.372;9.918;2023-07-29T06:56:35;2.57;;;2.37;;
11791;SDS011;5953;52.372;9.918;2023-07-29T06:59:06;2.83;;;2.50;;
11791;SDS011;5953;52.372;9.918;2023-07-29T07:01:38;2.87;;;2.67;;
11791;SDS011;5953;52.372;9.918;2023-07-29T07:04:10;3.30;;;3.00;;
11791;SDS011;5953;52.372;9.918;2023-07-29T07:06:45;3.07;;;2.40;;
11791;SDS011;5953;52.372;9.918;2023-07-29T07:09:15;2.93;;;2.73;;
11791;SDS011;5953;52.372;9.918;2023-07-29T07:11:44;3.53;;;2.20;;
11791;SDS011;5953;52.372;9.918;2023-07-29T07:14:15;2.63;;;2.37;;
11791;SDS011;5953;52.372;9.918;2023-07-29T07:16:47;2.60;;;2.37;;
11791;SDS011;5953;52.372;9.918;2023-07-29T07:19:21;2.80;;;2.60;;
11791;SDS011;5953;52.372;9.918;2023-07-29T07:21:55;3.57;;;2.20;;
11791;SDS011;5953;52.372;9.918;2023-07-29T07:24:24;3.13;;;2.43;;
11791;SDS011;5953;52.372;9.918;2023-07-29T07:26:53;2.63;;;2.30;;
11791;SDS011;5953;52.372;9.918;2023-07-29T07:29:21;3.23;;;2.90;;
11791;SDS011;5953;52.372;9.918;2023-07-29T07:31:49;2.33;;;2.13;;
11791;SDS011;5953;52.372;9.918;2023-07-29T07:34:19;3.13;;;2.73;;
11791;SDS011;5953;52.372;9.918;2023-07-29T07:36:47;2.10;;;2.00;;
11791;SDS011;5953;52.372;9.918;2023-07-29T07:39:18;2.80;;;2.60;;
11791;SDS011;5953;52.372;9.918;2023-07-29T07:41:46;2.23;;;2.07;;
11791;SDS011;5953;52.372;9.918;2023-07-29T07:44:14;4.30;;;3.10;;
11791;SDS011;5953;52.372;9.918;2023-07-29T07:46:44;2.97;;;2.77;;
11791;SDS011;5953;52.372;9.918;2023-07-29T07:49:11;3.00;;;2.40;;
11791;SDS011;5953;52.372;9.918;2023-07-29T07:51:40;2.70;;;2.50;;
11791;SDS011;5953;52.372;9.918;2023-07-29T07:54:07;2.80;;;2.00;;
11791;SDS011;5953;52.372;9.918;2023-07-29T07:56:37;2.63;;;1.90;;
11791;SDS011;5953;52.372;9.918;2023-07-29T07:59:08;2.37;;;2.27;;
11791;SDS011;5953;52.372;9.918;2023-07-29T08:01:39;3.93;;;2.63;;
11791;SDS011;5953;52.372;9.918;2023-07-29T08:04:10;2.70;;;1.63;;
11791;SDS011;5953;52.372;9.918;2023-07-29T08:06:40;2.90;;;1.93;;
11791;SDS011;5953;52.372;9.918;2023-07-29T08:09:09;2.10;;;1.90;;
11791;SDS011;5953;52.372;9.918;2023-07-29T08:11:40;2.43;;;2.00;;
11791;SDS011;5953;52.372;9.918;2023-07-29T08:14:09;2.30;;;1.93;;
11791;SDS011;5953;52.372;9.918;2023-07-29T08:16:38;2.03;;;1.90;;
11791;SDS011;5953;52.372;9.918;2023-07-29T08:19:07;1.80;;;1.70;;
11791;SDS011;5953;52.372;9.918;2023-07-29T08:21:38;2.08;;;1.77;;
11791;SDS011;5953;52.372;9.918;2023-07-29T08:24:09;2.00;;;1.80;;
11791;SDS011;5953;52.372;9.918;2023-07-29T08:26:42;3.10;;;2.43;;
11791;SDS011;5953;52.372;9.918;2023-07-29T08:29:10;1.83;;;1.73;;
11791;SDS011;5953;52.372;9.918;2023-07-29T08:31:39;1.92;;;1.75;;
11791;SDS011;5953;52.372;9.918;2023-07-29T08:34:10;3.30;;;2.77;;
11791;SDS011;5953;52.372;9.918;2023-07-29T08:36:38;3.40;;;2.37;;
11791;SDS011;5953;52.372;9.918;2023-07-29T08:39:06;3.50;;;2.50;;
11791;SDS011;5953;52.372;9.918;2023-07-29T08:41:40;3.00;;;2.20;;
11791;SDS011;5953;52.372;9.918;2023-07-29T08:44:18;3.03;;;2.73;;
11791;SDS011;5953;52.372;9.918;2023-07-29T08:46:49;3.27;;;2.97;;
11791;SDS011;5953;52.372;9.918;2023-07-29T08:49:18;4.67;;;3.30;;
11791;SDS011;5953;52.372;9.918;2023-07-29T08:51:46;3.20;;;2.90;;
11791;SDS011;5953;52.372;9.918;2023-07-29T08:54:15;4.70;;;3.80;;
11791;SDS011;5953;52.372;9.918;2023-07-29T08:56:44;4.00;;;3.57;;
11791;SDS011;5953;52.372;9.918;2023-07-29T08:59:12;5.97;;;3.70;;
11791;SDS011;5953;52.372;9.918;2023-07-29T09:01:42;4.57;;;3.00;;
11791;SDS011;5953;52.372;9.918;2023-07-29T09:04:10;4.00;;;2.83;;
11791;SDS011;5953;52.372;9.918;2023-07-29T09:06:38;2.63;;;2.43;;
11791;SDS011;5953;52.372;9.918;2023-07-29T09:09:07;2.80;;;2.60;;
11791;SDS011;5953;52.372;9.918;2023-07-29T09:11:36;2.50;;;2.30;;
11791;SDS011;5953;52.372;9.918;2023-07-29T09:14:05;2.57;;;2.40;;
11791;SDS011;5953;52.372;9.918;2023-07-29T09:16:33;4.13;;;2.43;;
11791;SDS011;5953;52.372;9.918;2023-07-29T09:19:02;2.80;;;2.50;;
11791;SDS011;5953;52.372;9.918;2023-07-29T09:21:31;7.13;;;2.67;;
11791;SDS011;5953;52.372;9.918;2023-07-29T09:24:02;2.77;;;2.57;;
11791;SDS011;5953;52.372;9.918;2023-07-29T09:26:31;2.85;;;2.58;;
11791;SDS011;5953;52.372;9.918;2023-07-29T09:28:59;2.87;;;2.30;;
11791;SDS011;5953;52.372;9.918;2023-07-29T09:31:28;3.20;;;2.87;;
11791;SDS011;5953;52.372;9.918;2023-07-29T09:33:57;3.50;;;2.70;;
11791;SDS011;5953;52.372;9.918;2023-07-29T09:36:26;3.25;;;3.03;;
11791;SDS011;5953;52.372;9.918;2023-07-29T09:38:54;3.63;;;3.17;;
11791;SDS011;5953;52.372;9.918;2023-07-29T09:41:23;4.18;;;3.78;;
11791;SDS011;5953;52.372;9.918;2023-07-29T09:43:55;4.93;;;4.53;;
11791;SDS011;5953;52.372;9.918;2023-07-29T09:46:25;5.07;;;4.68;;
11791;SDS011;5953;52.372;9.918;2023-07-29T09:49:01;5.47;;;4.97;;
11791;SDS011;5953;52.372;9.918;2023-07-29T09:51:29;4.93;;;4.53;;
11791;SDS011;5953;52.372;9.918;2023-07-29T09:53:57;5.00;;;4.60;;
11791;SDS011;5953;52.372;9.918;2023-07-29T09:56:26;6.05;;;5.55;;
11791;SDS011;5953;52.372;9.918;2023-07-29T09:58:55;5.55;;;4.60;;
11791;SDS011;5953;52.372;9.918;2023-07-29T10:01:23;4.75;;;4.35;;
11791;SDS011;5953;52.372;9.918;2023-07-29T10:03:52;5.30;;;4.78;;
11791;SDS011;5953;52.372;9.918;2023-07-29T10:06:24;5.63;;;5.18;;
11791;SDS011;5953;52.372;9.918;2023-07-29T10:08:52;5.90;;;5.35;;
11791;SDS011;5953;52.372;9.918;2023-07-29T10:11:21;7.20;;;6.60;;
11791;SDS011;5953;52.372;9.918;2023-07-29T10:13:51;7.43;;;6.82;;
11791;SDS011;5953;52.372;9.918;2023-07-29T10:16:34;6.93;;;6.32;;
11791;SDS011;5953;52.372;9.918;2023-07-29T10:19:04;7.03;;;6.43;;
11791;SDS011;5953;52.372;9.918;2023-07-29T10:21:33;7.00;;;6.38;;
11791;SDS011;5953;52.372;9.918;2023-07-29T10:24:04;6.65;;;6.15;;
11791;SDS011;5953;52.372;9.918;2023-07-29T10:26:37;8.23;;;6.13;;
11791;SDS011;5953;52.372;9.918;2023-07-29T10:29:10;7.38;;;6.07;;
11791;SDS011;5953;52.372;9.918;2023-07-29T10:31:40;6.88;;;6.28;;
11791;SDS011;5953;52.372;9.918;2023-07-29T10:34:10;5.60;;;5.20;;
11791;SDS011;5953;52.372;9.918;2023-07-29T10:36:40;5.95;;;5.20;;
11791;SDS011;5953;52.372;9.918;2023-07-29T10:39:09;5.82;;;5.40;;
11791;SDS011;5953;52.372;9.918;2023-07-29T10:44:45;5.90;;;5.10;;
11791;SDS011;5953;52.372;9.918;2023-07-29T10:47:16;5.18;;;4.75;;
11791;SDS011;5953;52.372;9.918;2023-07-29T10:49:46;4.90;;;4.60;;
11791;SDS011;5953;52.372;9.918;2023-07-29T10:52:28;5.05;;;4.65;;
11791;SDS011;5953;52.372;9.918;2023-07-29T10:54:57;4.88;;;4.47;;
11791;SDS011;5953;52.372;9.918;2023-07-29T10:57:30;4.75;;;4.43;;
11791;SDS011;5953;52.372;9.918;2023-07-29T10:59:59;4.20;;;3.90;;
11791;SDS011;5953;52.372;9.918;2023-07-29T11:02:28;4.22;;;3.92;;
11791;SDS011;5953;52.372;9.918;2023-07-29T11:04:58;3.58;;;3.28;;
11791;SDS011;5953;52.372;9.918;2023-07-29T11:07:27;4.45;;;4.13;;
11791;SDS011;5953;52.372;9.918;2023-07-29T11:09:59;3.83;;;3.40;;
11791;SDS011;5953;52.372;9.918;2023-07-29T11:12:35;3.88;;;3.28;;
11791;SDS011;5953;52.372;9.918;2023-07-29T11:15:11;3.33;;;3.13;;
11791;SDS011;5953;52.372;9.918;2023-07-29T11:17:41;3.72;;;2.90;;
11791;SDS011;5953;52.372;9.918;2023-07-29T11:20:10;3.33;;;3.00;;
11791;SDS011;5953;52.372;9.918;2023-07-29T11:22:41;2.97;;;2.70;;
11791;SDS011;5953;52.372;9.918;2023-07-29T11:25:09;3.10;;;2.90;;
11791;SDS011;5953;52.372;9.918;2023-07-29T11:27:38;3.50;;;3.20;;
11791;SDS011;5953;52.372;9.918;2023-07-29T11:30:07;2.83;;;2.63;;
11791;SDS011;5953;52.372;9.918;2023-07-29T11:32:37;2.67;;;2.47;;
11791;SDS011;5953;52.372;9.918;2023-07-29T11:35:06;2.80;;;2.60;;
11791;SDS011;5953;52.372;9.918;2023-07-29T11:37:36;3.72;;;2.58;;
11791;SDS011;5953;52.372;9.918;2023-07-29T11:40:06;2.92;;;2.63;;
11791;SDS011;5953;52.372;9.918;2023-07-29T11:42:36;2.50;;;2.22;;
11791;SDS011;5953;52.372;9.918;2023-07-29T11:45:05;2.38;;;2.20;;
11791;SDS011;5953;52.372;9.918;2023-07-29T11:47:34;3.10;;;2.90;;
11791;SDS011;5953;52.372;9.918;2023-07-29T11:50:03;2.50;;;2.30;;
11791;SDS011;5953;52.372;9.918;2023-07-29T11:52:32;2.72;;;2.53;;
11791;SDS011;5953;52.372;9.918;2023-07-29T11:55:01;3.40;;;2.65;;
11791;SDS011;5953;52.372;9.918;2023-07-29T11:57:30;3.25;;;3.05;;
11791;SDS011;5953;52.372;9.918;2023-07-29T12:00:01;2.05;;;1.95;;
11791;SDS011;5953;52.372;9.918;2023-07-29T12:02:29;1.80;;;1.70;;
11791;SDS011;5953;52.372;9.918;2023-07-29T12:04:58;1.83;;;1.65;;
11791;SDS011;5953;52.372;9.918;2023-07-29T12:07:26;1.70;;;1.60;;
11791;SDS011;5953;52.372;9.918;2023-07-29T12:09:54;1.95;;;1.30;;
11791;SDS011;5953;52.372;9.918;2023-07-29T12:12:23;1.60;;;1.50;;
11791;SDS011;5953;52.372;9.918;2023-07-29T12:14:53;1.60;;;1.13;;
11791;SDS011;5953;52.372;9.918;2023-07-29T12:17:22;2.42;;;1.45;;
11791;SDS011;5953;52.372;9.918;2023-07-29T12:19:53;1.38;;;0.88;;
11791;SDS011;5953;52.372;9.918;2023-07-29T12:22:22;1.63;;;1.30;;
11791;SDS011;5953;52.372;9.918;2023-07-29T12:24:52;1.38;;;1.02;;
11791;SDS011;5953;52.372;9.918;2023-07-29T12:27:21;1.80;;;1.15;;
11791;SDS011;5953;52.372;9.918;2023-07-29T12:29:53;1.10;;;0.98;;
11791;SDS011;5953;52.372;9.918;2023-07-29T12:32:24;1.65;;;1.55;;
11791;SDS011;5953;52.372;9.918;2023-07-29T12:34:53;1.30;;;1.20;;
11791;SDS011;5953;52.372;9.918;2023-07-29T12:37:30;1.30;;;1.20;;
11791;SDS011;5953;52.372;9.918;2023-07-29T12:39:58;1.20;;;1.10;;
11791;SDS011;5953;52.372;9.918;2023-07-29T12:42:26;1.52;;;1.42;;
11791;SDS011;5953;52.372;9.918;2023-07-29T12:44:55;1.20;;;1.10;;
11791;SDS011;5953;52.372;9.918;2023-07-29T12:47:23;1.23;;;1.20;;
11791;SDS011;5953;52.372;9.918;2023-07-29T12:49:51;0.90;;;0.90;;
11791;SDS011;5953;52.372;9.918;2023-07-29T12:52:18;2.75;;;1.58;;
11791;SDS011;5953;52.372;9.918;2023-07-29T12:54:46;1.13;;;1.00;;
11791;SDS011;5953;52.372;9.918;2023-07-29T12:57:14;1.75;;;1.27;;
11791;SDS011;5953;52.372;9.918;2023-07-29T12:59:42;2.88;;;1.30;;
11791;SDS011;5953;52.372;9.918;2023-07-29T13:02:11;1.10;;;1.00;;
11791;SDS011;5953;52.372;9.918;2023-07-29T13:04:39;0.90;;;0.90;;
11791;SDS011;5953;52.372;9.918;2023-07-29T13:07:07;1.00;;;1.00;;
11791;SDS011;5953;52.372;9.918;2023-07-29T13:09:34;1.30;;;1.20;;
11791;SDS011;5953;52.372;9.918;2023-07-29T13:12:02;1.17;;;1.08;;
11791;SDS011;5953;52.372;9.918;2023-07-29T13:14:30;1.45;;;1.30;;
11791;SDS011;5953;52.372;9.918;2023-07-29T13:16:58;1.20;;;1.10;;
11791;SDS011;5953;52.372;9.918;2023-07-29T13:19:27;1.83;;;1.38;;
11791;SDS011;5953;52.372;9.918;2023-07-29T13:21:55;1.00;;;1.00;;
11791;SDS011;5953;52.372;9.918;2023-07-29T13:24:22;1.00;;;1.00;;
11791;SDS011;5953;52.372;9.918;2023-07-29T13:26:50;0.95;;;0.93;;
11791;SDS011;5953;52.372;9.918;2023-07-29T13:29:18;1.40;;;1.10;;
11791;SDS011;5953;52.372;9.918;2023-07-29T13:31:46;1.38;;;1.27;;
11791;SDS011;5953;52.372;9.918;2023-07-29T13:34:13;1.23;;;0.82;;
11791;SDS011;5953;52.372;9.918;2023-07-29T13:36:42;2.03;;;1.00;;
11791;SDS011;5953;52.372;9.918;2023-07-29T13:39:10;0.95;;;0.90;;
11791;SDS011;5953;52.372;9.918;2023-07-29T13:41:38;1.17;;;1.10;;
11791;SDS011;5953;52.372;9.918;2023-07-29T13:44:06;1.90;;;1.10;;
11791;SDS011;5953;52.372;9.918;2023-07-29T13:46:33;1.45;;;1.35;;
11791;SDS011;5953;52.372;9.918;2023-07-29T13:49:02;1.00;;;1.00;;
11791;SDS011;5953;52.372;9.918;2023-07-29T13:51:29;1.70;;;1.60;;
11791;SDS011;5953;52.372;9.918;2023-07-29T13:53:59;0.93;;;0.93;;
11791;SDS011;5953;52.372;9.918;2023-07-29T13:56:26;2.00;;;1.40;;
11791;SDS011;5953;52.372;9.918;2023-07-29T13:58:54;1.80;;;1.10;;
11791;SDS011;5953;52.372;9.918;2023-07-29T14:01:22;1.23;;;1.02;;
11791;SDS011;5953;52.372;9.918;2023-07-29T14:03:50;1.30;;;1.20;;
11791;SDS011;5953;52.372;9.918;2023-07-29T14:06:17;0.95;;;0.95;;
11791;SDS011;5953;52.372;9.918;2023-07-29T14:08:58;1.38;;;1.05;;
11791;SDS011;5953;52.372;9.918;2023-07-29T14:11:26;1.13;;;1.10;;
11791;SDS011;5953;52.372;9.918;2023-07-29T14:13:54;1.15;;;0.90;;
11791;SDS011;5953;52.372;9.918;2023-07-29T14:16:21;1.45;;;1.35;;
11791;SDS011;5953;52.372;9.918;2023-07-29T14:18:49;1.13;;;0.95;;
11791;SDS011;5953;52.372;9.918;2023-07-29T14:21:17;1.33;;;1.10;;
11791;SDS011;5953;52.372;9.918;2023-07-29T14:23:45;1.10;;;1.00;;
11791;SDS011;5953;52.372;9.918;2023-07-29T14:26:14;2.25;;;1.10;;
11791;SDS011;5953;52.372;9.918;2023-07-29T14:28:41;1.10;;;1.00;;
11791;SDS011;5953;52.372;9.918;2023-07-29T14:31:09;0.98;;;0.90;;
11791;SDS011;5953;52.372;9.918;2023-07-29T14:33:37;1.30;;;1.20;;
11791;SDS011;5953;52.372;9.918;2023-07-29T14:36:05;1.88;;;1.00;;
11791;SDS011;5953;52.372;9.918;2023-07-29T14:38:34;1.40;;;1.40;;
11791;SDS011;5953;52.372;9.918;2023-07-29T14:41:02;1.42;;;1.00;;
11791;SDS011;5953;52.372;9.918;2023-07-29T14:43:31;1.13;;;1.13;;
11791;SDS011;5953;52.372;9.918;2023-07-29T14:45:59;2.33;;;0.93;;
11791;SDS011;5953;52.372;9.918;2023-07-29T14:48:27;1.58;;;1.30;;
11791;SDS011;5953;52.372;9.918;2023-07-29T14:50:54;0.90;;;0.90;;
11791;SDS011;5953;52.372;9.918;2023-07-29T14:53:22;2.28;;;1.10;;
11791;SDS011;5953;52.372;9.918;2023-07-29T14:55:50;1.10;;;1.00;;
11791;SDS011;5953;52.372;9.918;2023-07-29T14:58:18;1.10;;;1.00;;
11791;SDS011;5953;52.372;9.918;2023-07-29T15:00:47;0.90;;;0.90;;
11791;SDS011;5953;52.372;9.918;2023-07-29T15:03:15;1.48;;;0.90;;
11791;SDS011;5953;52.372;9.918;2023-07-29T15:05:43;1.48;;;1.13;;
11791;SDS011;5953;52.372;9.918;2023-07-29T15:08:11;2.42;;;1.17;;
11791;SDS011;5953;52.372;9.918;2023-07-29T15:10:38;1.20;;;1.10;;
11791;SDS011;5953;52.372;9.918;2023-07-29T15:13:06;1.25;;;1.15;;